PWSweather.com
Personal Weather Stations
Station Observations
HELOTES
Helotes Park Terrace, Helotes, TX 78023

Helotes Park TerraceHelotes, TX 78023

Lat: 29.57, Lon: -98.68

Elevation: 1060

Station Type: Ambient Weather WS-1090

Latest ConditionsUpdated 4:23:17 AM CDT Sunday, Oct 26, 2014
Currently Today's Max Today's Min Today's Average
Temperature 60.3°F15.7°C 65.9°F18.8°C 60.3°F15.7°C 63.7°F17.6°C
Dew Point 53.1°F11.7°C 56.6°F13.7°C 52.7°F11.5°C 55.0°F12.8°C
Winds 2.1 mph WSW3.4 kmh WSW 3.0 mph WSW4.8 kmh WSW - 1.5 mph 2.4 kmh
Wind Gusts 2.5 mph4.0 kmh 3.4 mph5.5 kmh - -
Humidity 77% 77% 67% 73%
Pressure 29.98 in1015.2 mb 30.02 in1016.6 mb 29.98 in1015.2 mb -
Hour Temp Dew Point Humidity Winds Wind Gusts Pressure Precip Precip Rate Daily Precip Total
04:23 AM 60.3°F15.7°C 53.1°F11.7°C 77% 2.1 mph WSW3.4 kmh WSW 2.5 mph4.0 kmh 29.98 in1015.2 mb 0.00 in0.0 mm 0.00 in/hr0.0 mm/hr 0.00 in0.0 mm
04:18 AM 60.3°F15.7°C 52.7°F11.5°C 76% 1.9 mph WSW3.1 kmh WSW 2.5 mph4.0 kmh 29.98 in1015.2 mb 0.00 in0.0 mm 0.00 in/hr0.0 mm/hr 0.00 in0.0 mm
04:13 AM 60.5°F15.8°C 52.9°F11.6°C 76% 2.1 mph WSW3.4 kmh WSW 2.5 mph4.0 kmh 29.98 in1015.2 mb 0.00 in0.0 mm 0.00 in/hr0.0 mm/hr 0.00 in0.0 mm
04:08 AM 60.7°F15.9°C 53.1°F11.7°C 76% 2.5 mph WSW4.0 kmh WSW 3.4 mph5.5 kmh 29.98 in1015.2 mb 0.00 in0.0 mm 0.00 in/hr0.0 mm/hr 0.00 in0.0 mm
04:03 AM 60.8°F16.0°C 53.3°F11.8°C 76% 3.0 mph WSW4.8 kmh WSW 3.4 mph5.5 kmh 29.98 in1015.2 mb 0.00 in0.0 mm 0.00 in/hr0.0 mm/hr 0.00 in0.0 mm
03:58 AM 60.8°F16.0°C 53.3°F11.8°C 76% 2.4 mph WSW3.9 kmh WSW 3.4 mph5.5 kmh 29.98 in1015.2 mb 0.00 in0.0 mm 0.00 in/hr0.0 mm/hr 0.00 in0.0 mm
03:53 AM 61.0°F16.1°C 53.5°F11.9°C 76% 2.5 mph WSW4.0 kmh WSW 2.7 mph4.3 kmh 29.98 in1015.2 mb 0.00 in0.0 mm 0.00 in/hr0.0 mm/hr 0.00 in0.0 mm
03:48 AM 61.2°F16.2°C 53.7°F12.1°C 76% 2.5 mph WSW4.0 kmh WSW 2.7 mph4.3 kmh 29.98 in1015.2 mb 0.00 in0.0 mm 0.00 in/hr0.0 mm/hr 0.00 in0.0 mm
03:43 AM 61.2°F16.2°C 53.7°F12.1°C 76% 1.9 mph WSW3.1 kmh WSW 2.5 mph4.0 kmh 29.98 in1015.2 mb 0.00 in0.0 mm 0.00 in/hr0.0 mm/hr 0.00 in0.0 mm
03:38 AM 61.4°F16.3°C 53.7°F12.1°C 76% 1.9 mph WSW3.1 kmh WSW 2.5 mph4.0 kmh 29.98 in1015.2 mb 0.00 in0.0 mm 0.00 in/hr0.0 mm/hr 0.00 in0.0 mm
03:33 AM 61.6°F16.4°C 53.9°F12.2°C 76% 1.6 mph WSW2.6 kmh WSW 2.0 mph3.2 kmh 29.99 in1015.6 mb 0.00 in0.0 mm 0.00 in/hr0.0 mm/hr 0.00 in0.0 mm
03:28 AM 61.6°F16.4°C 53.6°F12.0°C 75% 1.8 mph WSW2.9 kmh WSW 1.8 mph2.9 kmh 29.99 in1015.6 mb 0.00 in0.0 mm 0.00 in/hr0.0 mm/hr 0.00 in0.0 mm
03:23 AM 61.7°F16.5°C 53.7°F12.1°C 75% 1.7 mph WSW2.7 kmh WSW 2.2 mph3.5 kmh 29.99 in1015.6 mb 0.00 in0.0 mm 0.00 in/hr0.0 mm/hr 0.00 in0.0 mm
03:18 AM 61.9°F16.6°C 53.9°F12.2°C 75% 2.1 mph WSW3.4 kmh WSW 2.5 mph4.0 kmh 29.99 in1015.6 mb 0.00 in0.0 mm 0.00 in/hr0.0 mm/hr 0.00 in0.0 mm
03:13 AM 62.3°F16.8°C 54.2°F12.3°C 75% 2.1 mph WSW3.4 kmh WSW 2.5 mph4.0 kmh 29.99 in1015.6 mb 0.00 in0.0 mm 0.00 in/hr0.0 mm/hr 0.00 in0.0 mm
03:08 AM 62.3°F16.8°C 53.8°F12.1°C 74% 2.0 mph WSW3.2 kmh WSW 2.2 mph3.5 kmh 29.99 in1015.6 mb 0.00 in0.0 mm 0.00 in/hr0.0 mm/hr 0.00 in0.0 mm
03:03 AM 62.6°F17.0°C 54.5°F12.5°C 75% 1.9 mph WSW3.1 kmh WSW 2.2 mph3.5 kmh 29.99 in1015.6 mb 0.00 in0.0 mm 0.00 in/hr0.0 mm/hr 0.00 in0.0 mm
02:58 AM 62.8°F17.1°C 55.1°F12.8°C 76% 2.2 mph WSW3.5 kmh WSW 2.2 mph3.5 kmh 29.99 in1015.6 mb 0.00 in0.0 mm 0.00 in/hr0.0 mm/hr 0.00 in0.0 mm
02:53 AM 63.0°F17.2°C 55.3°F12.9°C 76% 1.6 mph WSW2.6 kmh WSW 2.0 mph3.2 kmh 29.99 in1015.6 mb 0.00 in0.0 mm 0.00 in/hr0.0 mm/hr 0.00 in0.0 mm
02:48 AM 63.0°F17.2°C 54.9°F12.7°C 75% 1.3 mph WSW2.1 kmh WSW 2.2 mph3.5 kmh 30.00 in1015.9 mb 0.00 in0.0 mm 0.00 in/hr0.0 mm/hr 0.00 in0.0 mm
02:43 AM 63.2°F17.3°C 55.1°F12.8°C 75% 1.9 mph WSW3.1 kmh WSW 2.2 mph3.5 kmh 29.99 in1015.6 mb 0.00 in0.0 mm 0.00 in/hr0.0 mm/hr 0.00 in0.0 mm
02:38 AM 63.4°F17.4°C 55.3°F12.9°C 75% 2.0 mph WSW3.2 kmh WSW 2.0 mph3.2 kmh 30.00 in1015.9 mb 0.00 in0.0 mm 0.00 in/hr0.0 mm/hr 0.00 in0.0 mm
02:33 AM 63.4°F17.4°C 55.3°F12.9°C 75% 1.5 mph WSW2.4 kmh WSW 2.0 mph3.2 kmh 30.00 in1015.9 mb 0.00 in0.0 mm 0.00 in/hr0.0 mm/hr 0.00 in0.0 mm
02:28 AM 63.5°F17.5°C 55.1°F12.8°C 74% 1.9 mph WSW3.1 kmh WSW 2.0 mph3.2 kmh 30.00 in1015.9 mb 0.00 in0.0 mm 0.00 in/hr0.0 mm/hr 0.00 in0.0 mm
02:23 AM 63.7°F17.6°C 55.3°F12.9°C 74% 1.8 mph WSW2.9 kmh WSW 1.8 mph2.9 kmh 30.00 in1015.9 mb 0.00 in0.0 mm 0.00 in/hr0.0 mm/hr 0.00 in0.0 mm
02:18 AM 63.9°F17.7°C 55.4°F13.0°C 74% 1.8 mph WSW2.9 kmh WSW 1.8 mph2.9 kmh 30.00 in1015.9 mb 0.00 in0.0 mm 0.00 in/hr0.0 mm/hr 0.00 in0.0 mm
02:13 AM 63.9°F17.7°C 55.4°F13.0°C 74% 1.7 mph WSW2.7 kmh WSW 2.0 mph3.2 kmh 30.00 in1015.9 mb 0.00 in0.0 mm 0.00 in/hr0.0 mm/hr 0.00 in0.0 mm
02:08 AM 64.1°F17.8°C 55.6°F13.1°C 74% 1.8 mph WSW2.9 kmh WSW 2.0 mph3.2 kmh 30.00 in1015.9 mb 0.00 in0.0 mm 0.00 in/hr0.0 mm/hr 0.00 in0.0 mm
02:03 AM 64.3°F17.9°C 55.4°F13.0°C 73% 1.6 mph WSW2.6 kmh WSW 2.0 mph3.2 kmh 30.00 in1015.9 mb 0.00 in0.0 mm 0.00 in/hr0.0 mm/hr 0.00 in0.0 mm
01:58 AM 64.4°F18.0°C 55.6°F13.1°C 73% 1.8 mph WSW2.9 kmh WSW 2.0 mph3.2 kmh 30.00 in1015.9 mb 0.00 in0.0 mm 0.00 in/hr0.0 mm/hr 0.00 in0.0 mm
01:53 AM 64.8°F18.2°C 56.0°F13.3°C 73% 1.8 mph WSW2.9 kmh WSW 2.5 mph4.0 kmh 30.00 in1015.9 mb 0.00 in0.0 mm 0.00 in/hr0.0 mm/hr 0.00 in0.0 mm
01:48 AM 64.8°F18.2°C 56.0°F13.3°C 73% 1.9 mph WSW3.1 kmh WSW 2.7 mph4.3 kmh 30.00 in1015.9 mb 0.00 in0.0 mm 0.00 in/hr0.0 mm/hr 0.00 in0.0 mm
01:43 AM 65.2°F18.4°C 56.3°F13.5°C 73% 2.1 mph WSW3.4 kmh WSW 2.7 mph4.3 kmh 30.00 in1015.9 mb 0.00 in0.0 mm 0.00 in/hr0.0 mm/hr 0.00 in0.0 mm
01:38 AM 65.2°F18.4°C 56.3°F13.5°C 73% 1.8 mph WSW2.9 kmh WSW 2.5 mph4.0 kmh 30.00 in1015.9 mb 0.00 in0.0 mm 0.00 in/hr0.0 mm/hr 0.00 in0.0 mm
01:33 AM 65.3°F18.5°C 56.4°F13.6°C 73% 1.2 mph WSW1.9 kmh WSW 1.6 mph2.6 kmh 30.00 in1015.9 mb 0.00 in0.0 mm 0.00 in/hr0.0 mm/hr 0.00 in0.0 mm
01:28 AM 65.5°F18.6°C 56.6°F13.7°C 73% 1.1 mph WSW1.8 kmh WSW 1.8 mph2.9 kmh 30.00 in1015.9 mb 0.00 in0.0 mm 0.00 in/hr0.0 mm/hr 0.00 in0.0 mm
01:23 AM 65.5°F18.6°C 56.6°F13.7°C 73% 1.2 mph WSW1.9 kmh WSW 1.8 mph2.9 kmh 30.01 in1016.3 mb 0.00 in0.0 mm 0.00 in/hr0.0 mm/hr 0.00 in0.0 mm
01:18 AM 65.7°F18.7°C 56.4°F13.6°C 72% 1.8 mph SW2.9 kmh SW 1.8 mph2.9 kmh 30.01 in1016.3 mb 0.00 in0.0 mm 0.00 in/hr0.0 mm/hr 0.00 in0.0 mm
01:13 AM 65.7°F18.7°C 56.4°F13.6°C 72% Calm Calm 0.9 mph1.4 kmh 30.01 in1016.3 mb 0.00 in0.0 mm 0.00 in/hr0.0 mm/hr 0.00 in0.0 mm
01:08 AM 65.7°F18.7°C 56.4°F13.6°C 72% 0.2 mph SE0.3 kmh SE 1.3 mph2.1 kmh 30.01 in1016.3 mb 0.00 in0.0 mm 0.00 in/hr0.0 mm/hr 0.00 in0.0 mm
01:03 AM 65.9°F18.8°C 56.6°F13.7°C 72% 0.2 mph SE0.3 kmh SE 1.3 mph2.1 kmh 30.01 in1016.3 mb 0.00 in0.0 mm 0.00 in/hr0.0 mm/hr 0.00 in0.0 mm
12:58 AM 65.9°F18.8°C 56.3°F13.5°C 71% 0.5 mph SE0.8 kmh SE 1.8 mph2.9 kmh 30.01 in1016.3 mb 0.00 in0.0 mm 0.00 in/hr0.0 mm/hr 0.00 in0.0 mm
12:53 AM 65.9°F18.8°C 56.3°F13.5°C 71% 1.1 mph SE1.8 kmh SE 1.8 mph2.9 kmh 30.01 in1016.3 mb 0.00 in0.0 mm 0.00 in/hr0.0 mm/hr 0.00 in0.0 mm
12:48 AM 65.7°F18.7°C 55.7°F13.2°C 70% 0.5 mph E0.8 kmh E 1.3 mph2.1 kmh 30.01 in1016.3 mb 0.00 in0.0 mm 0.00 in/hr0.0 mm/hr 0.00 in0.0 mm
12:43 AM 65.9°F18.8°C 55.8°F13.2°C 70% 1.0 mph E1.6 kmh E 1.3 mph2.1 kmh 30.02 in1016.6 mb 0.00 in0.0 mm 0.00 in/hr0.0 mm/hr 0.00 in0.0 mm
12:38 AM 65.9°F18.8°C 55.8°F13.2°C 70% 0.3 mph E0.5 kmh E 1.3 mph2.1 kmh 30.02 in1016.6 mb 0.00 in0.0 mm 0.00 in/hr0.0 mm/hr 0.00 in0.0 mm
12:33 AM 65.9°F18.8°C 55.8°F13.2°C 70% 0.8 mph E1.3 kmh E 1.1 mph1.8 kmh 30.02 in1016.6 mb 0.00 in0.0 mm 0.00 in/hr0.0 mm/hr 0.00 in0.0 mm
12:28 AM 65.9°F18.8°C 55.5°F13.1°C 69% 0.8 mph ENE1.3 kmh ENE 1.1 mph1.8 kmh 30.02 in1016.6 mb 0.00 in0.0 mm 0.00 in/hr0.0 mm/hr 0.00 in0.0 mm
12:23 AM 65.9°F18.8°C 55.5°F13.1°C 69% Calm Calm -- 30.02 in1016.6 mb 0.00 in0.0 mm 0.00 in/hr0.0 mm/hr 0.00 in0.0 mm
12:18 AM 65.9°F18.8°C 55.5°F13.1°C 69% Calm Calm 0.4 mph0.6 kmh 30.02 in1016.6 mb 0.00 in0.0 mm 0.00 in/hr0.0 mm/hr 0.00 in0.0 mm
12:13 AM 65.9°F18.8°C 55.0°F12.8°C 68% Calm Calm 1.8 mph2.9 kmh 30.02 in1016.6 mb 0.00 in0.0 mm 0.00 in/hr0.0 mm/hr 0.00 in0.0 mm
12:08 AM 65.9°F18.8°C 55.0°F12.8°C 68% 1.0 mph SW1.6 kmh SW 2.0 mph3.2 kmh 30.02 in1016.6 mb 0.00 in0.0 mm 0.00 in/hr0.0 mm/hr 0.00 in0.0 mm
12:03 AM 65.9°F18.8°C 54.5°F12.5°C 67% 1.5 mph WSW2.4 kmh WSW 2.0 mph3.2 kmh 30.02 in1016.6 mb 0.00 in0.0 mm 0.00 in/hr0.0 mm/hr 0.00 in0.0 mm